createdAt,value
2019-04-05T00:00:22.156Z,10.40
2019-04-05T00:02:51.073Z,11.53
2019-04-05T00:05:20.039Z,11.23
2019-04-05T00:07:49.059Z,10.30
2019-04-05T00:10:18.166Z,10.40
2019-04-05T00:12:48.039Z,10.40
2019-04-05T00:15:17.112Z,11.53
2019-04-05T00:17:46.097Z,11.23
2019-04-05T00:20:16.113Z,10.83
2019-04-05T00:22:45.043Z,11.10
2019-04-05T00:25:14.384Z,10.97
2019-04-05T00:27:43.228Z,11.60
2019-04-05T00:30:12.421Z,11.07
2019-04-05T00:32:42.326Z,11.77
2019-04-05T00:35:11.741Z,11.73
2019-04-05T00:37:40.665Z,11.80
2019-04-05T00:40:10.056Z,12.13
2019-04-05T00:42:38.996Z,11.27
2019-04-05T00:45:08.514Z,12.93
2019-04-05T00:47:37.501Z,9.90
2019-04-05T00:50:07.467Z,11.20
2019-04-05T00:52:36.794Z,12.10
2019-04-05T00:55:06.461Z,12.40
2019-04-05T00:57:35.769Z,11.37
2019-04-05T01:00:05.641Z,12.33
2019-04-05T01:02:34.937Z,11.47
2019-04-05T01:05:04.305Z,12.13
2019-04-05T01:07:33.300Z,11.23
2019-04-05T01:10:02.428Z,13.30
2019-04-05T01:12:32.167Z,13.77
2019-04-05T01:15:02.254Z,13.63
2019-04-05T01:17:31.229Z,12.40
2019-04-05T01:20:03.200Z,13.60
2019-04-05T01:22:34.215Z,13.27
2019-04-05T01:25:03.955Z,12.63
2019-04-05T01:27:34.637Z,13.47
2019-04-05T01:30:05.035Z,12.40
2019-04-05T01:32:34.157Z,12.93
2019-04-05T01:35:03.235Z,12.90
2019-04-05T01:37:32.149Z,13.03
2019-04-05T01:40:01.569Z,13.80
2019-04-05T01:42:31.701Z,13.00
2019-04-05T01:45:01.236Z,12.63
2019-04-05T01:47:30.285Z,13.27
2019-04-05T01:49:59.605Z,12.50
2019-04-05T01:52:28.804Z,12.60
2019-04-05T01:54:57.803Z,13.20
2019-04-05T01:57:27.022Z,14.23
2019-04-05T01:59:55.961Z,11.97
2019-04-05T02:02:25.224Z,12.70
2019-04-05T02:04:54.155Z,12.60
2019-04-05T02:07:23.348Z,12.10
2019-04-05T02:09:52.851Z,13.67
2019-04-05T02:12:22.498Z,13.30
2019-04-05T02:14:51.539Z,14.10
2019-04-05T02:17:20.571Z,13.13
2019-04-05T02:19:49.553Z,13.10
2019-04-05T02:22:18.861Z,13.73
2019-04-05T02:24:47.882Z,12.90
2019-04-05T02:27:17.164Z,13.33
2019-04-05T02:29:46.148Z,13.90
2019-04-05T02:32:15.158Z,12.70
2019-04-05T02:34:44.146Z,14.67
2019-04-05T02:37:13.141Z,14.40
2019-04-05T02:39:42.388Z,13.60
2019-04-05T02:42:12.397Z,14.03
2019-04-05T02:44:43.017Z,15.47
2019-04-05T02:47:13.042Z,16.00
2019-04-05T02:49:43.017Z,15.90
2019-04-05T02:52:12.723Z,14.07
2019-04-05T02:54:42.826Z,13.83
2019-04-05T02:57:12.327Z,14.50
2019-04-05T02:59:42.170Z,16.47
2019-04-05T03:02:11.365Z,15.83
2019-04-05T03:04:40.771Z,16.37
2019-04-05T03:07:09.765Z,15.47
2019-04-05T03:09:39.412Z,14.73
2019-04-05T03:12:08.758Z,16.13
2019-04-05T03:14:38.483Z,16.27
2019-04-05T03:17:08.433Z,16.40
2019-04-05T03:19:38.543Z,15.07
2019-04-05T03:22:10.492Z,16.60
2019-04-05T03:24:41.581Z,16.87
2019-04-05T03:27:16.261Z,15.87
2019-04-05T03:29:45.447Z,18.40
2019-04-05T03:32:15.669Z,14.83
2019-04-05T03:34:44.719Z,16.73
2019-04-05T03:37:14.381Z,15.50
2019-04-05T03:39:43.658Z,17.67
2019-04-05T03:42:12.862Z,15.87
2019-04-05T03:44:42.232Z,17.60
2019-04-05T03:47:11.623Z,16.67
2019-04-05T03:49:40.722Z,15.53
2019-04-05T03:52:09.937Z,17.37
2019-04-05T03:54:39.308Z,15.47
2019-04-05T03:57:08.458Z,17.40
2019-04-05T03:59:38.073Z,17.13
2019-04-05T04:02:07.446Z,17.70
2019-04-05T04:04:36.691Z,19.27
2019-04-05T04:07:06.161Z,18.43
2019-04-05T04:09:35.523Z,20.20
2019-04-05T04:12:04.830Z,19.10
2019-04-05T04:14:33.745Z,17.70
2019-04-05T04:17:12.133Z,17.17
2019-04-05T04:19:34.111Z,16.63
2019-04-05T04:22:18.026Z,17.27
2019-04-05T04:24:47.569Z,19.93
2019-04-05T04:27:17.078Z,23.37
2019-04-05T04:29:46.260Z,18.67
2019-04-05T04:32:15.701Z,20.23
2019-04-05T04:34:45.086Z,18.80
2019-04-05T04:37:14.074Z,19.23
2019-04-05T04:39:43.273Z,19.23
2019-04-05T04:42:12.611Z,20.13
2019-04-05T04:44:42.553Z,19.33
2019-04-05T04:47:25.526Z,20.70
2019-04-05T04:49:43.418Z,35.67
2019-04-05T04:52:12.838Z,24.00
2019-04-05T04:54:41.882Z,22.23
2019-04-05T04:57:10.897Z,22.43
2019-04-05T04:59:40.118Z,21.57
2019-04-05T05:02:09.413Z,24.00
2019-04-05T05:04:38.712Z,26.50
2019-04-05T05:07:08.286Z,24.33
2019-04-05T05:09:37.388Z,23.47
2019-04-05T05:12:06.739Z,24.33
2019-04-05T05:14:35.817Z,23.03
2019-04-05T05:17:04.816Z,22.70
2019-04-05T05:19:34.204Z,24.70
2019-04-05T05:22:03.301Z,23.90
2019-04-05T05:24:32.491Z,24.57
2019-04-05T05:27:01.790Z,25.37
2019-04-05T05:29:30.898Z,21.77
2019-04-05T05:32:00.073Z,20.93
2019-04-05T05:34:29.305Z,34.03
2019-04-05T05:36:59.165Z,24.60
2019-04-05T05:39:28.362Z,25.33
2019-04-05T05:41:57.402Z,26.17
2019-04-05T05:44:26.417Z,25.63
2019-04-05T05:46:55.610Z,24.37
2019-04-05T05:49:24.968Z,24.77
2019-04-05T05:51:54.097Z,23.73
2019-04-05T05:54:23.312Z,23.87
2019-04-05T05:56:52.324Z,24.87
2019-04-05T05:59:21.360Z,28.30
2019-04-05T06:01:50.374Z,29.40
2019-04-05T06:04:19.232Z,28.80
2019-04-05T06:06:48.365Z,27.27
2019-04-05T06:09:17.541Z,24.20
2019-04-05T06:11:46.534Z,34.73
2019-04-05T06:14:15.625Z,35.20
2019-04-05T06:16:46.530Z,25.27
2019-04-05T06:19:16.301Z,26.00
2019-04-05T06:21:45.136Z,26.43
2019-04-05T06:24:14.358Z,25.37
2019-04-05T06:26:43.573Z,34.20
2019-04-05T06:29:12.733Z,25.77
2019-04-05T06:31:41.733Z,25.83
2019-04-05T06:34:10.751Z,24.77
2019-04-05T06:36:39.992Z,26.67
2019-04-05T06:39:09.163Z,25.43
2019-04-05T06:41:38.157Z,25.97
2019-04-05T06:44:07.433Z,27.13
2019-04-05T06:46:36.363Z,32.63
2019-04-05T06:49:05.363Z,32.63
2019-04-05T06:51:34.290Z,35.13
2019-04-05T06:54:03.544Z,27.07
2019-04-05T06:56:32.649Z,30.43
2019-04-05T06:59:01.654Z,27.07
2019-04-05T07:01:30.729Z,27.63
2019-04-05T07:03:59.676Z,33.33
2019-04-05T07:06:28.582Z,27.77
2019-04-05T07:08:57.507Z,26.37
2019-04-05T07:11:26.563Z,29.30
2019-04-05T07:13:55.571Z,28.53
2019-04-05T07:16:24.753Z,28.33
2019-04-05T07:18:53.738Z,26.43
2019-04-05T07:21:22.590Z,33.27
2019-04-05T07:23:51.431Z,25.63
2019-04-05T07:26:21.069Z,30.53
2019-04-05T07:28:50.218Z,25.17
2019-04-05T07:31:19.222Z,29.13
2019-04-05T07:33:48.150Z,27.03
2019-04-05T07:36:17.015Z,29.77
2019-04-05T07:38:45.938Z,27.80
2019-04-05T07:41:14.932Z,30.27
2019-04-05T07:43:43.844Z,39.10
2019-04-05T07:46:12.783Z,26.60
2019-04-05T07:48:45.115Z,28.10
2019-04-05T07:51:12.698Z,27.93
2019-04-05T07:53:41.722Z,26.90
2019-04-05T07:56:10.734Z,29.07
2019-04-05T07:58:39.726Z,28.77
2019-04-05T08:01:08.729Z,24.70
2019-04-05T08:03:38.244Z,25.40
2019-04-05T08:06:07.266Z,26.53
2019-04-05T08:09:09.137Z,23.77
2019-04-05T08:11:39.957Z,28.77
2019-04-05T08:14:10.290Z,28.50
2019-04-05T08:16:39.293Z,30.00
2019-04-05T08:19:08.284Z,25.80
2019-04-05T08:21:37.267Z,29.63
2019-04-05T08:24:06.341Z,25.30
2019-04-05T08:26:35.597Z,26.20
2019-04-05T08:29:05.183Z,24.30
2019-04-05T08:31:34.437Z,25.87
2019-04-05T08:34:03.362Z,26.40
2019-04-05T08:36:32.848Z,29.70
2019-04-05T08:39:02.527Z,23.60
2019-04-05T08:41:31.454Z,30.53
2019-04-05T08:44:00.298Z,25.03
2019-04-05T08:46:29.229Z,24.10
2019-04-05T08:49:09.970Z,22.67
2019-04-05T08:51:29.217Z,24.70
2019-04-05T08:53:58.149Z,21.67
2019-04-05T08:56:27.068Z,21.67
2019-04-05T08:58:56.069Z,21.23
2019-04-05T09:01:25.067Z,21.83
2019-04-05T09:03:53.950Z,23.10
2019-04-05T09:06:22.991Z,22.90
2019-04-05T09:08:51.999Z,23.90
2019-04-05T09:11:20.899Z,21.47
2019-04-05T09:13:49.926Z,19.80
2019-04-05T09:16:18.896Z,23.90
2019-04-05T09:18:49.380Z,21.20
2019-04-05T09:21:18.465Z,21.20
2019-04-05T09:23:47.686Z,20.67
2019-04-05T09:26:16.606Z,17.20
2019-04-05T09:28:45.542Z,18.87
2019-04-05T09:31:14.683Z,19.23
2019-04-05T09:33:44.045Z,18.43
2019-04-05T09:36:13.349Z,19.40
2019-04-05T09:38:42.731Z,18.83
2019-04-05T09:41:11.841Z,18.90
2019-04-05T09:43:40.769Z,17.70
2019-04-05T09:46:09.933Z,15.33
2019-04-05T09:48:38.858Z,16.57
2019-04-05T09:51:07.869Z,15.57
2019-04-05T09:53:37.207Z,15.33
2019-04-05T09:56:06.244Z,17.07
2019-04-05T09:58:35.304Z,16.70
2019-04-05T10:01:04.431Z,15.77
2019-04-05T10:03:33.367Z,17.07
2019-04-05T10:06:03.075Z,15.90
2019-04-05T10:08:32.278Z,13.50
2019-04-05T10:11:01.206Z,13.47
2019-04-05T10:13:30.066Z,14.70
2019-04-05T10:15:58.921Z,16.13
2019-04-05T10:18:27.772Z,17.10
2019-04-05T10:20:56.764Z,16.37
2019-04-05T10:23:25.966Z,15.87
2019-04-05T10:25:54.880Z,12.60
2019-04-05T10:28:23.869Z,16.23
2019-04-05T10:30:52.805Z,14.30
2019-04-05T10:33:22.216Z,19.20
2019-04-05T10:35:51.077Z,17.50
2019-04-05T10:38:20.416Z,15.03
2019-04-05T10:40:49.456Z,14.53
2019-04-05T10:43:18.492Z,14.57
2019-04-05T10:45:48.091Z,20.67
2019-04-05T10:48:17.036Z,14.43
2019-04-05T10:50:45.991Z,14.30
2019-04-05T10:53:14.998Z,17.30
2019-04-05T10:55:44.005Z,16.93
2019-04-05T10:58:12.932Z,13.97
2019-04-05T11:00:42.338Z,16.00
2019-04-05T11:03:11.657Z,17.33
2019-04-05T11:05:40.866Z,17.53
2019-04-05T11:08:09.712Z,18.50
2019-04-05T11:10:38.700Z,18.50
2019-04-05T11:13:07.618Z,17.37
2019-04-05T11:15:36.883Z,16.70
2019-04-05T11:18:05.868Z,16.17
2019-04-05T11:20:34.873Z,16.40
2019-04-05T11:23:03.863Z,17.90
2019-04-05T11:25:33.073Z,19.13
2019-04-05T11:28:02.027Z,17.83
2019-04-05T11:30:44.537Z,18.43
2019-04-05T11:33:13.652Z,19.00
2019-04-05T11:35:43.360Z,26.30
2019-04-05T11:38:13.831Z,19.47
2019-04-05T11:40:43.732Z,15.60
2019-04-05T11:43:12.833Z,18.97
2019-04-05T11:45:41.829Z,18.37
2019-04-05T11:48:10.740Z,18.50
2019-04-05T11:50:39.665Z,18.47
2019-04-05T11:53:08.770Z,20.20
2019-04-05T11:55:37.761Z,17.83
2019-04-05T11:58:06.702Z,18.57
2019-04-05T12:01:00.822Z,17.60
2019-04-05T12:03:30.214Z,19.63
2019-04-05T12:05:59.134Z,20.43
2019-04-05T12:08:28.154Z,15.43
2019-04-05T12:10:57.349Z,18.40
2019-04-05T12:13:26.192Z,21.43
2019-04-05T12:15:58.037Z,19.50
2019-04-05T12:18:26.101Z,21.87
2019-04-05T12:20:59.917Z,18.63
2019-04-05T12:23:25.930Z,18.50
2019-04-05T12:25:54.961Z,19.27
2019-04-05T12:28:24.062Z,19.37
2019-04-05T12:30:53.065Z,16.40
2019-04-05T12:33:22.092Z,18.30
2019-04-05T12:35:52.945Z,19.17
2019-04-05T12:38:32.442Z,20.20
2019-04-05T12:41:03.121Z,17.13
2019-04-05T12:43:32.864Z,19.47
2019-04-05T12:46:01.861Z,17.67
2019-04-05T12:48:31.189Z,19.23
2019-04-05T12:51:01.317Z,18.17
2019-04-05T12:53:30.738Z,18.00
2019-04-05T12:55:59.585Z,17.50
2019-04-05T12:58:28.457Z,17.83
2019-04-05T13:00:57.499Z,16.80
2019-04-05T13:03:26.558Z,18.10
2019-04-05T13:05:57.116Z,15.80
2019-04-05T13:08:26.676Z,17.97
2019-04-05T13:10:56.898Z,18.57
2019-04-05T13:13:27.552Z,25.70
2019-04-05T13:15:59.177Z,18.03
2019-04-05T13:18:30.757Z,17.17
2019-04-05T13:20:58.281Z,19.03
2019-04-05T13:23:28.677Z,18.67
2019-04-05T13:25:57.593Z,18.83
2019-04-05T13:28:26.530Z,16.57
2019-04-05T13:30:55.722Z,20.67
2019-04-05T13:33:24.836Z,19.70
2019-04-05T13:35:53.850Z,20.30
2019-04-05T13:38:22.884Z,19.93
2019-04-05T13:40:51.886Z,19.67
2019-04-05T13:43:21.271Z,19.63
2019-04-05T13:45:50.265Z,18.60
2019-04-05T13:48:19.199Z,19.70
2019-04-05T13:50:48.133Z,18.53
2019-04-05T13:53:17.085Z,19.90
2019-04-05T13:55:47.559Z,18.23
2019-04-05T13:58:16.779Z,18.63
2019-04-05T14:00:48.378Z,19.67
2019-04-05T14:03:16.363Z,20.27
2019-04-05T14:05:45.616Z,18.20
2019-04-05T14:08:14.798Z,17.03
2019-04-05T14:10:43.863Z,19.43
2019-04-05T14:13:12.974Z,17.60
2019-04-05T14:15:42.917Z,15.80
2019-04-05T14:18:14.482Z,17.77
2019-04-05T14:20:42.819Z,16.57
2019-04-05T14:23:11.838Z,17.23
2019-04-05T14:25:40.825Z,15.63
2019-04-05T14:28:09.681Z,16.13
2019-04-05T14:30:38.530Z,18.03
2019-04-05T14:33:07.794Z,17.80
2019-04-05T14:35:36.805Z,19.20
2019-04-05T14:38:06.048Z,17.40
2019-04-05T14:40:35.339Z,21.17
2019-04-05T14:43:05.115Z,15.93
2019-04-05T14:45:34.193Z,18.43
2019-04-05T14:48:03.212Z,16.20
2019-04-05T14:50:32.251Z,16.00
2019-04-05T14:53:02.012Z,15.93
2019-04-05T14:55:31.377Z,18.33
2019-04-05T14:58:00.378Z,15.83
2019-04-05T15:00:29.457Z,15.23
2019-04-05T15:02:58.650Z,17.03
2019-04-05T15:05:27.689Z,16.57
2019-04-05T15:07:56.618Z,20.47
2019-04-05T15:10:26.236Z,20.17
2019-04-05T15:12:55.141Z,15.30
2019-04-05T15:15:24.083Z,14.07
2019-04-05T15:17:53.625Z,14.53
2019-04-05T15:20:23.505Z,16.67
2019-04-05T15:22:52.430Z,17.87
2019-04-05T15:25:21.990Z,17.20
2019-04-05T15:27:55.185Z,17.40
2019-04-05T15:30:25.514Z,17.77
2019-04-05T15:32:52.765Z,15.20
2019-04-05T15:35:21.697Z,17.37
2019-04-05T15:37:50.620Z,17.13
2019-04-05T15:40:20.160Z,18.37
2019-04-05T15:42:49.369Z,18.97
2019-04-05T15:45:18.585Z,20.10
2019-04-05T15:47:47.582Z,22.83
2019-04-05T15:50:16.860Z,19.97
2019-04-05T15:52:45.772Z,19.87
2019-04-05T15:55:14.781Z,21.03
2019-04-05T15:57:43.709Z,22.00
2019-04-05T16:00:15.226Z,18.27
2019-04-05T16:02:44.263Z,20.83
2019-04-05T16:05:13.813Z,18.77
2019-04-05T16:07:42.801Z,20.17
2019-04-05T16:10:12.041Z,19.20
2019-04-05T16:12:41.030Z,20.13
2019-04-05T16:15:10.437Z,21.53
2019-04-05T16:17:39.366Z,20.40
2019-04-05T16:20:09.249Z,19.93
2019-04-05T16:22:38.456Z,22.07
2019-04-05T16:25:08.090Z,19.83
2019-04-05T16:27:37.021Z,20.97
2019-04-05T16:30:06.729Z,22.40
2019-04-05T16:32:35.665Z,23.07
2019-04-05T16:35:04.890Z,22.83
2019-04-05T16:37:33.816Z,23.83
2019-04-05T16:40:03.982Z,19.40
2019-04-05T16:42:33.031Z,25.83
2019-04-05T16:45:02.051Z,23.40
2019-04-05T16:47:31.344Z,19.20
2019-04-05T16:50:00.269Z,21.77
2019-04-05T16:52:29.638Z,27.23
2019-04-05T16:54:58.610Z,24.47
2019-04-05T16:57:29.674Z,24.93
2019-04-05T16:59:58.668Z,28.23
2019-04-05T17:02:27.534Z,26.67
2019-04-05T17:04:56.465Z,21.83
2019-04-05T17:07:25.657Z,24.80
2019-04-05T17:09:55.089Z,28.03
2019-04-05T17:12:24.026Z,29.00
2019-04-05T17:14:52.950Z,25.03
2019-04-05T17:17:21.810Z,24.40
2019-04-05T17:19:50.809Z,25.37
2019-04-05T17:22:19.989Z,32.97
2019-04-05T17:24:48.990Z,23.30
2019-04-05T17:27:17.934Z,25.47
2019-04-05T17:29:46.954Z,23.53
2019-04-05T17:32:16.034Z,22.77
2019-04-05T17:34:44.887Z,27.17
2019-04-05T17:37:14.185Z,23.63
2019-04-05T17:39:43.186Z,24.10
2019-04-05T17:42:12.115Z,24.83
2019-04-05T17:44:41.446Z,27.97
2019-04-05T17:47:10.674Z,25.07
2019-04-05T17:49:39.566Z,25.17
2019-04-05T17:52:08.753Z,32.37
2019-04-05T17:54:37.673Z,23.93
2019-04-05T17:57:06.921Z,25.40
2019-04-05T17:59:36.365Z,26.00
2019-04-05T18:02:05.469Z,25.50
2019-04-05T18:04:34.546Z,25.57
2019-04-05T18:07:03.725Z,25.97
2019-04-05T18:09:32.992Z,25.70
2019-04-05T18:12:01.939Z,27.67
2019-04-05T18:14:30.800Z,25.93
2019-04-05T18:16:59.980Z,24.80
2019-04-05T18:19:28.921Z,26.50
2019-04-05T18:21:57.833Z,34.67
2019-04-05T18:24:27.162Z,25.77
2019-04-05T18:26:56.013Z,27.30
2019-04-05T18:29:24.893Z,28.60
2019-04-05T18:31:54.061Z,26.40
2019-04-05T18:34:23.269Z,27.10
2019-04-05T18:36:52.207Z,34.13
2019-04-05T18:39:21.243Z,27.00
2019-04-05T18:41:50.255Z,31.70
2019-04-05T18:44:19.181Z,28.33
2019-04-05T18:46:48.063Z,26.83
2019-04-05T18:49:17.573Z,28.23
2019-04-05T18:51:46.818Z,25.93
2019-04-05T18:54:15.740Z,28.10
2019-04-05T18:56:44.663Z,37.60
2019-04-05T18:59:13.866Z,27.43
2019-04-05T19:01:42.954Z,27.80
2019-04-05T19:04:11.908Z,33.27
2019-04-05T19:06:41.226Z,28.67
2019-04-05T19:09:11.862Z,32.00
2019-04-05T19:11:41.225Z,31.43
2019-04-05T19:14:10.254Z,30.43
2019-04-05T19:16:39.319Z,39.27
2019-04-05T19:19:08.330Z,29.80
2019-04-05T19:21:37.263Z,38.00
2019-04-05T19:24:06.268Z,31.53
2019-04-05T19:26:35.254Z,36.07
2019-04-05T19:29:04.592Z,38.53
2019-04-05T19:49:10.837Z,35.77
2019-04-05T19:51:39.762Z,39.27
2019-04-05T19:54:08.730Z,62.13
2019-04-05T19:56:37.669Z,55.00
2019-04-05T19:59:07.285Z,66.37
2019-04-05T20:01:36.153Z,46.67
2019-04-05T20:04:05.717Z,52.00
2019-04-05T20:06:34.581Z,48.23
2019-04-05T20:09:05.777Z,40.93
2019-04-05T20:11:35.033Z,43.83
2019-04-05T20:14:04.054Z,37.10
2019-04-05T20:16:32.973Z,37.50
2019-04-05T20:19:01.953Z,35.97
2019-04-05T20:21:30.806Z,36.87
2019-04-05T20:23:59.676Z,35.43
2019-04-05T20:26:28.594Z,38.93
2019-04-05T20:28:57.539Z,32.37
2019-04-05T20:31:26.510Z,38.27
2019-04-05T20:33:55.424Z,32.63
2019-04-05T20:36:24.432Z,32.33
2019-04-05T20:38:53.353Z,37.97
2019-04-05T20:41:22.282Z,36.33
2019-04-05T20:43:51.210Z,33.23
2019-04-05T20:46:20.124Z,32.57
2019-04-05T20:48:48.977Z,33.70
2019-04-05T20:51:17.838Z,32.60
2019-04-05T20:53:47.065Z,41.70
2019-04-05T20:56:16.001Z,33.43
2019-04-05T20:58:45.144Z,36.90
2019-04-05T21:01:14.255Z,33.27
2019-04-05T21:03:43.509Z,36.23
2019-04-05T21:06:12.529Z,36.53
2019-04-05T21:08:41.622Z,36.97
2019-04-05T21:11:10.575Z,38.47
2019-04-05T21:13:39.476Z,37.13
2019-04-05T21:16:08.482Z,36.03
2019-04-05T21:18:37.613Z,32.87
2019-04-05T21:21:06.520Z,36.83
2019-04-05T21:23:35.374Z,39.20
2019-04-05T21:26:04.700Z,34.27
2019-04-05T21:28:33.762Z,33.53
2019-04-05T21:31:02.767Z,35.43
2019-04-05T21:33:32.038Z,33.43
2019-04-05T21:36:00.910Z,41.60
2019-04-05T21:38:30.046Z,35.43
2019-04-05T21:40:58.934Z,37.40
2019-04-05T21:43:27.906Z,33.30
2019-04-05T21:45:57.094Z,36.07
2019-04-05T21:48:26.038Z,34.13
2019-04-05T21:50:54.896Z,38.00
2019-04-05T21:53:24.330Z,36.80
2019-04-05T21:55:53.673Z,34.37
2019-04-05T21:58:22.605Z,37.53
2019-04-05T22:00:55.142Z,37.93
2019-04-05T22:03:24.145Z,34.97
2019-04-05T22:05:53.452Z,40.77
2019-04-05T22:08:22.393Z,35.07
2019-04-05T22:10:51.599Z,33.97
2019-04-05T22:13:20.801Z,31.63
2019-04-05T22:15:49.846Z,39.23
2019-04-05T22:18:18.826Z,39.30
2019-04-05T22:20:47.707Z,37.73
2019-04-05T22:23:16.718Z,34.37
2019-04-05T22:25:45.654Z,35.90
2019-04-05T22:28:14.625Z,37.30
2019-04-05T22:30:43.469Z,36.23
2019-04-05T22:33:12.588Z,41.33
2019-04-05T22:35:41.847Z,40.70
2019-04-05T22:38:10.838Z,42.10
2019-04-05T22:40:39.681Z,40.57
2019-04-05T22:43:08.628Z,45.33
2019-04-05T22:45:37.924Z,49.27
2019-04-05T22:48:07.226Z,54.73
2019-04-05T22:50:36.154Z,50.90
2019-04-05T22:53:05.153Z,49.97
2019-04-05T22:55:34.650Z,53.37
2019-04-05T22:58:03.692Z,51.93
2019-04-05T23:00:32.681Z,47.17
2019-04-05T23:03:01.619Z,48.80
2019-04-05T23:05:30.901Z,43.20
2019-04-05T23:07:59.921Z,41.13
2019-04-05T23:10:29.173Z,45.90
2019-04-05T23:12:58.754Z,41.03
2019-04-05T23:15:27.739Z,37.17
2019-04-05T23:17:56.601Z,39.77
2019-04-05T23:20:26.521Z,38.87
2019-04-05T23:22:56.394Z,36.87
2019-04-05T23:25:25.502Z,46.87
2019-04-05T23:27:55.022Z,46.03
2019-04-05T23:30:25.364Z,41.00
2019-04-05T23:32:54.601Z,43.87
2019-04-05T23:35:23.534Z,48.37
2019-04-05T23:37:52.477Z,45.80
2019-04-05T23:40:21.503Z,47.77
2019-04-05T23:42:50.567Z,44.60
2019-04-05T23:45:19.662Z,45.87
2019-04-05T23:47:48.670Z,48.97
2019-04-05T23:50:17.997Z,47.30
2019-04-05T23:52:46.866Z,41.27
2019-04-05T23:55:15.963Z,50.73
2019-04-05T23:57:44.868Z,46.67
